Time;durP1;ratioP1;P1;durP2;ratioP2;P2;SDS_P1;SDS_P2;PMS_P1;PMS_P2;Temp;Humidity;BMP_temperature;BMP_pressure;BME280_temperature;BME280_humidity;BME280_pressure;Samples;Min_cycle;Max_cycle;Signal;HPM_P1;HPM_P2
2021/09/25 00:01:50;;;;;;;4.97;4.47;;;17.60;85.60;;;;;;5097102;28;20505;-74
2021/09/25 00:04:17;;;;;;;4.47;4.07;;;17.60;85.50;;;;;;5097081;28;20448;-74
2021/09/25 00:06:44;;;;;;;10.60;5.00;;;17.60;85.70;;;;;;5097225;28;20455;-75
2021/09/25 00:09:10;;;;;;;4.50;4.03;;;17.60;85.60;;;;;;5096943;28;20506;-75
2021/09/25 00:11:37;;;;;;;5.63;4.80;;;17.60;85.60;;;;;;5096889;28;20451;-75
2021/09/25 00:14:05;;;;;;;4.93;3.77;;;17.70;85.60;;;;;;5097288;28;20448;-75
2021/09/25 00:16:33;;;;;;;5.60;4.10;;;17.70;85.50;;;;;;5096859;28;20447;-74
2021/09/25 00:19:01;;;;;;;5.50;4.83;;;17.60;85.60;;;;;;5096837;28;20452;-75
2021/09/25 00:21:29;;;;;;;4.97;4.47;;;17.70;85.70;;;;;;5096833;28;20451;-77
2021/09/25 00:23:56;;;;;;;4.80;4.40;;;17.70;85.50;;;;;;5096864;28;20454;-76
2021/09/25 00:26:23;;;;;;;5.60;3.67;;;17.70;85.20;;;;;;5096663;28;20439;-76
2021/09/25 00:28:50;;;;;;;4.70;4.17;;;17.70;84.90;;;;;;5096462;28;20581;-76
2021/09/25 00:31:19;;;;;;;5.07;4.30;;;17.80;84.70;;;;;;5096472;28;20451;-76
2021/09/25 00:33:45;;;;;;;4.10;3.50;;;17.80;84.70;;;;;;5096200;28;20967;-76
2021/09/25 00:36:12;;;;;;;4.90;4.50;;;17.80;84.60;;;;;;5096437;28;20455;-75
2021/09/25 00:38:39;;;;;;;6.40;5.00;;;17.80;84.40;;;;;;5096304;28;20471;-76
2021/09/25 00:41:07;;;;;;;10.17;4.87;;;17.80;85.30;;;;;;5096375;28;20455;-75
2021/09/25 00:43:35;;;;;;;5.10;4.43;;;17.80;84.50;;;;;;5096054;28;20937;-74
2021/09/25 00:46:25;;;;;;;6.10;5.13;;;17.80;84.60;;;;;;5096309;28;20447;-75
2021/09/25 00:48:52;;;;;;;5.97;5.40;;;17.70;84.60;;;;;;5095425;28;20999;-75
2021/09/25 00:51:19;;;;;;;8.23;4.63;;;17.70;84.70;;;;;;5096103;28;20439;-75
2021/09/25 00:53:46;;;;;;;4.80;3.60;;;17.70;84.80;;;;;;5096156;28;20448;-74
2021/09/25 00:56:13;;;;;;;3.70;3.40;;;17.70;84.80;;;;;;5096642;28;20455;-76
2021/09/25 00:58:41;;;;;;;4.57;4.03;;;17.70;84.60;;;;;;5095626;28;20995;-74
2021/09/25 01:01:07;;;;;;;5.70;4.50;;;17.70;84.40;;;;;;5096146;28;20521;-75
2021/09/25 01:03:35;;;;;;;4.53;4.13;;;17.70;84.20;;;;;;5095989;28;20451;-75
2021/09/25 01:06:03;;;;;;;4.67;4.27;;;17.70;84.10;;;;;;5095883;28;20477;-75
2021/09/25 01:08:30;;;;;;;4.33;3.93;;;17.70;83.80;;;;;;5095760;28;20468;-75
2021/09/25 01:10:57;;;;;;;5.20;4.70;;;17.70;83.40;;;;;;5095934;28;20452;-74
2021/09/25 01:13:24;;;;;;;8.60;5.50;;;17.70;83.30;;;;;;5095732;28;20447;-74
2021/09/25 01:15:52;;;;;;;7.60;5.67;;;17.70;83.80;;;;;;5095741;28;20539;-74
2021/09/25 01:18:19;;;;;;;6.50;5.03;;;17.60;84.20;;;;;;5095573;28;20521;-74
2021/09/25 01:20:47;;;;;;;9.00;5.73;;;17.60;84.70;;;;;;5095657;28;20444;-74
2021/09/25 01:23:15;;;;;;;6.93;6.17;;;17.50;85.10;;;;;;5095491;28;20444;-75
2021/09/25 01:25:42;;;;;;;8.10;6.00;;;17.50;85.50;;;;;;5095550;28;20450;-75
2021/09/25 01:28:09;;;;;;;6.70;6.00;;;17.40;85.50;;;;;;5095074;28;20456;-75
2021/09/25 01:30:36;;;;;;;5.93;5.07;;;17.40;85.80;;;;;;5095291;28;20507;-75
2021/09/25 01:33:03;;;;;;;8.00;5.23;;;17.40;86.00;;;;;;5095038;28;20428;-76
2021/09/25 01:35:30;;;;;;;8.00;5.37;;;17.30;86.00;;;;;;5095324;28;20444;-74
2021/09/25 01:37:57;;;;;;;7.20;6.30;;;17.30;86.10;;;;;;5095134;28;20474;-76
2021/09/25 01:40:26;;;;;;;6.43;5.70;;;17.30;86.10;;;;;;5095178;28;20754;-76
2021/09/25 01:42:52;;;;;;;12.10;5.20;;;17.30;86.00;;;;;;5094913;28;20952;-76
2021/09/25 01:45:20;;;;;;;6.77;5.80;;;17.30;86.00;;;;;;5095060;28;20447;-76
2021/09/25 01:47:46;;;;;;;8.97;5.47;;;17.30;85.70;;;;;;5094550;28;20860;-76
2021/09/25 01:50:15;;;;;;;7.77;5.87;;;17.30;85.40;;;;;;5094574;28;20891;-76
2021/09/25 01:52:42;;;;;;;6.73;5.53;;;17.30;85.30;;;;;;5095770;28;20455;-76
2021/09/25 01:55:10;;;;;;;6.63;4.90;;;17.30;85.20;;;;;;5094842;28;20452;-76
2021/09/25 01:57:38;;;;;;;7.20;5.63;;;17.30;85.20;;;;;;5094774;28;20467;-76
2021/09/25 02:00:07;;;;;;;5.20;4.67;;;17.20;85.30;;;;;;5093938;28;20447;-76
2021/09/25 02:02:34;;;;;;;7.47;5.37;;;17.20;85.50;;;;;;5094859;28;20451;-76
2021/09/25 02:05:01;;;;;;;6.83;5.80;;;17.10;85.40;;;;;;5094710;28;20448;-76
2021/09/25 02:07:30;;;;;;;6.33;5.67;;;17.10;85.50;;;;;;5094673;28;20475;-76
2021/09/25 02:09:57;;;;;;;6.77;5.90;;;17.10;85.60;;;;;;5094680;28;20533;-76
2021/09/25 02:12:24;;;;;;;9.63;6.17;;;17.00;85.70;;;;;;5094620;28;20433;-76
2021/09/25 02:14:52;;;;;;;8.57;7.67;;;17.00;86.00;;;;;;5094471;28;20485;-75
2021/09/25 02:17:21;;;;;;;10.90;6.50;;;17.00;86.30;;;;;;5094449;28;20452;-76
2021/09/25 02:19:48;;;;;;;6.30;5.70;;;17.00;86.40;;;;;;5094411;28;20454;-76
2021/09/25 02:22:15;;;;;;;6.03;5.43;;;16.90;86.50;;;;;;5094543;28;20451;-76
2021/09/25 02:24:42;;;;;;;7.50;6.30;;;16.90;86.80;;;;;;5094319;28;20455;-76
2021/09/25 02:27:09;;;;;;;7.03;6.27;;;16.80;86.90;;;;;;5094199;28;20448;-74
2021/09/25 02:29:36;;;;;;;6.40;5.80;;;16.80;87.10;;;;;;5094178;28;20487;-76
2021/09/25 02:32:04;;;;;;;7.23;6.50;;;16.80;87.40;;;;;;5093905;28;20949;-74
2021/09/25 02:34:31;;;;;;;8.60;6.20;;;16.80;87.50;;;;;;5094179;28;20487;-75
2021/09/25 02:36:58;;;;;;;7.80;7.00;;;16.80;87.50;;;;;;5093959;28;20956;-74
2021/09/25 02:39:25;;;;;;;8.33;7.37;;;16.90;87.40;;;;;;5093732;28;21039;-74
2021/09/25 02:41:52;;;;;;;7.23;6.53;;;16.90;87.50;;;;;;5093767;28;20800;-76
2021/09/25 02:44:19;;;;;;;8.43;7.10;;;16.90;87.60;;;;;;5093755;28;20960;-75
2021/09/25 02:46:47;;;;;;;7.30;6.60;;;16.90;87.50;;;;;;5093771;28;20448;-76
2021/09/25 02:49:15;;;;;;;8.30;6.27;;;16.90;87.30;;;;;;5093392;28;20519;-74
2021/09/25 02:51:42;;;;;;;6.90;5.60;;;16.90;87.10;;;;;;5093884;28;20448;-75
2021/09/25 02:54:09;;;;;;;7.90;7.10;;;17.00;87.80;;;;;;5093613;28;20820;-75
2021/09/25 02:56:36;;;;;;;8.70;7.00;;;17.00;86.80;;;;;;5093868;28;20448;-74
2021/09/25 02:59:04;;;;;;;8.33;7.03;;;17.00;86.90;;;;;;5094152;28;20460;-76
2021/09/25 03:01:31;;;;;;;8.20;6.90;;;16.90;86.90;;;;;;5093886;28;20478;-75
2021/09/25 03:03:58;;;;;;;7.50;6.80;;;17.00;86.60;;;;;;5094111;28;20435;-76
2021/09/25 03:06:27;;;;;;;10.47;7.17;;;16.90;86.40;;;;;;5093703;28;20447;-76
2021/09/25 03:08:54;;;;;;;7.10;6.37;;;17.00;86.80;;;;;;5093967;28;20475;-75
2021/09/25 03:11:21;;;;;;;9.47;6.90;;;16.90;86.80;;;;;;5093491;28;20487;-75
2021/09/25 03:13:48;;;;;;;8.60;7.70;;;16.90;87.10;;;;;;5093446;28;20793;-76
2021/09/25 03:16:15;;;;;;;9.10;6.97;;;16.90;87.20;;;;;;5093745;28;20517;-76
2021/09/25 03:18:41;;;;;;;8.10;6.77;;;16.90;87.40;;;;;;5093614;28;20467;-75
2021/09/25 03:21:08;;;;;;;8.23;7.43;;;16.90;87.40;;;;;;5093712;28;20451;-76
2021/09/25 03:23:36;;;;;;;9.43;7.93;;;16.90;87.40;;;;;;5093592;28;20455;-76
2021/09/25 03:26:03;;;;;;;11.17;8.30;;;16.90;87.70;;;;;;5093676;28;20447;-76
2021/09/25 03:28:30;;;;;;;8.90;7.90;;;16.90;87.80;;;;;;5093528;28;20510;-76
2021/09/25 03:30:57;;;;;;;10.00;8.60;;;16.80;87.90;;;;;;5093556;28;20491;-76
2021/09/25 03:33:23;;;;;;;11.10;8.57;;;16.80;88.20;;;;;;5093459;28;20482;-76
2021/09/25 03:35:50;;;;;;;9.30;6.83;;;16.90;88.50;;;;;;5093214;28;20956;-76
2021/09/25 03:38:21;;;;;;;8.80;7.73;;;16.80;88.80;;;;;;5093373;28;20468;-76
2021/09/25 03:40:50;;;;;;;10.93;8.83;;;16.90;89.10;;;;;;5093549;28;20523;-75
2021/09/25 03:43:17;;;;;;;12.43;8.47;;;16.80;89.20;;;;;;5093662;28;20405;-76
2021/09/25 03:45:44;;;;;;;10.60;8.50;;;16.80;89.70;;;;;;5093371;28;20846;-76
2021/09/25 03:48:11;;;;;;;12.23;8.53;;;16.70;90.00;;;;;;5093103;28;20475;-76
2021/09/25 03:50:37;;;;;;;9.57;8.13;;;16.80;90.10;;;;;;5093584;28;20487;-74
2021/09/25 03:53:04;;;;;;;10.47;8.73;;;16.70;90.10;;;;;;5094040;28;20444;-74
2021/09/25 03:55:31;;;;;;;12.40;9.27;;;16.70;90.10;;;;;;5093475;28;20455;-76
2021/09/25 03:57:59;;;;;;;10.00;8.17;;;16.80;90.30;;;;;;5093287;28;20475;-76
2021/09/25 04:00:27;;;;;;;10.10;8.70;;;16.70;90.30;;;;;;5093407;28;20443;-76
2021/09/25 04:02:54;;;;;;;11.80;8.50;;;16.70;90.40;;;;;;5093553;28;20816;-74
2021/09/25 04:05:21;;;;;;;11.23;8.37;;;16.70;90.40;;;;;;5093545;28;20452;-74
2021/09/25 04:07:49;;;;;;;11.47;8.93;;;16.70;90.50;;;;;;5093749;28;20468;-74
2021/09/25 04:10:16;;;;;;;9.67;7.93;;;16.70;90.50;;;;;;5093303;28;20488;-75
2021/09/25 04:12:43;;;;;;;8.97;8.03;;;16.60;90.40;;;;;;5092925;28;20446;-76
2021/09/25 04:15:12;;;;;;;12.30;8.53;;;16.60;90.50;;;;;;5093711;28;20459;-75
2021/09/25 04:17:39;;;;;;;10.73;9.30;;;16.60;90.60;;;;;;5093228;28;20475;-76
2021/09/25 04:20:08;;;;;;;9.80;8.77;;;16.60;90.70;;;;;;5091099;22;20507;-68
2021/09/25 04:22:35;;;;;;;12.07;9.30;;;16.60;90.80;;;;;;5073702;28;20467;-68
2021/09/25 04:25:02;;;;;;;10.53;8.77;;;16.60;90.90;;;;;;5076405;28;20444;-69
2021/09/25 04:27:30;;;;;;;12.33;9.37;;;16.60;90.90;;;;;;5076330;28;20440;-68
2021/09/25 04:29:58;;;;;;;11.17;9.77;;;16.60;91.00;;;;;;5092903;28;20486;-68
2021/09/25 04:32:26;;;;;;;12.00;9.50;;;16.60;91.00;;;;;;5096548;28;20443;-68
2021/09/25 04:34:53;;;;;;;14.80;10.53;;;16.70;91.10;;;;;;5096522;28;20538;-68
2021/09/25 04:37:20;;;;;;;10.67;8.80;;;16.70;91.10;;;;;;5096808;28;20454;-68
2021/09/25 04:39:47;;;;;;;12.07;9.70;;;16.70;91.10;;;;;;5096349;28;20495;-68
2021/09/25 04:42:14;;;;;;;11.90;9.67;;;16.70;91.10;;;;;;5096367;28;20440;-68
2021/09/25 04:44:41;;;;;;;12.97;9.97;;;16.70;91.20;;;;;;5096335;28;20447;-68
2021/09/25 04:47:08;;;;;;;12.90;9.77;;;16.80;91.20;;;;;;5096294;28;20446;-68
2021/09/25 04:49:36;;;;;;;11.03;8.60;;;16.80;91.10;;;;;;5095803;28;20973;-68
2021/09/25 04:52:03;;;;;;;17.00;9.40;;;16.80;91.00;;;;;;5096181;28;20444;-67
2021/09/25 04:54:30;;;;;;;13.83;9.73;;;16.80;91.10;;;;;;5096097;28;20444;-67
2021/09/25 04:56:57;;;;;;;13.23;10.53;;;16.80;91.10;;;;;;5096060;28;20444;-67
2021/09/25 04:59:23;;;;;;;12.10;9.73;;;16.80;91.20;;;;;;5095620;28;20838;-68
2021/09/25 05:01:50;;;;;;;13.40;10.57;;;16.80;91.20;;;;;;5096011;28;20444;-68
2021/09/25 05:04:17;;;;;;;13.00;10.50;;;16.80;91.20;;;;;;5095942;28;20424;-68
2021/09/25 05:06:45;;;;;;;11.50;8.93;;;16.80;91.20;;;;;;5095813;28;20452;-68
2021/09/25 05:09:12;;;;;;;11.70;9.13;;;16.80;91.10;;;;;;5095785;28;20460;-68
2021/09/25 05:11:39;;;;;;;11.50;9.73;;;16.80;91.00;;;;;;5095699;28;20480;-67
2021/09/25 05:14:06;;;;;;;10.03;7.87;;;16.80;91.10;;;;;;5095753;28;20516;-67
2021/09/25 05:16:33;;;;;;;11.40;9.10;;;16.80;91.00;;;;;;5095687;28;20448;-67
2021/09/25 05:18:59;;;;;;;12.33;7.90;;;16.80;90.90;;;;;;5095342;28;20471;-68
2021/09/25 05:21:26;;;;;;;9.50;8.20;;;16.80;90.60;;;;;;5095346;28;20840;-68
2021/09/25 05:23:54;;;;;;;9.70;8.10;;;16.90;90.60;;;;;;5095544;28;20439;-68
2021/09/25 05:26:21;;;;;;;12.10;8.63;;;16.80;90.40;;;;;;5095483;28;20452;-68
2021/09/25 05:28:48;;;;;;;9.27;8.17;;;16.80;90.50;;;;;;5095384;28;20661;-67
2021/09/25 05:31:15;;;;;;;13.37;8.50;;;16.70;90.50;;;;;;5095368;28;20468;-67
2021/09/25 05:33:42;;;;;;;9.83;8.10;;;16.70;90.70;;;;;;5095356;28;20435;-67
2021/09/25 05:36:08;;;;;;;8.80;6.70;;;16.70;90.80;;;;;;5095020;28;20913;-67
2021/09/25 05:38:35;;;;;;;9.77;7.20;;;16.70;90.80;;;;;;5095206;28;20466;-67
2021/09/25 05:41:03;;;;;;;9.20;6.87;;;16.70;90.80;;;;;;5095223;28;20440;-67
2021/09/25 05:43:30;;;;;;;10.33;8.00;;;16.70;90.80;;;;;;5094811;28;20440;-67
2021/09/25 05:45:57;;;;;;;7.37;6.63;;;16.70;90.80;;;;;;5094979;28;20443;-67
2021/09/25 05:48:25;;;;;;;10.03;6.90;;;16.80;90.90;;;;;;5095032;28;20464;-68
2021/09/25 05:50:51;;;;;;;13.50;7.10;;;16.80;90.90;;;;;;5094792;28;20472;-67
2021/09/25 05:53:18;;;;;;;9.63;8.00;;;16.80;90.80;;;;;;5094962;28;20451;-67
2021/09/25 05:55:45;;;;;;;9.73;7.33;;;16.80;90.70;;;;;;5094911;28;20483;-67
2021/09/25 05:58:13;;;;;;;9.20;7.60;;;16.80;90.70;;;;;;5095039;28;20451;-68
2021/09/25 06:00:40;;;;;;;9.53;7.87;;;16.90;90.50;;;;;;5094820;28;20839;-67
2021/09/25 06:03:06;;;;;;;12.67;8.30;;;16.90;90.50;;;;;;5094488;28;20443;-67
2021/09/25 06:05:33;;;;;;;8.27;6.40;;;16.90;90.50;;;;;;5094454;28;20960;-67
2021/09/25 06:08:01;;;;;;;10.30;6.37;;;16.90;90.40;;;;;;5094389;28;20955;-68
2021/09/25 06:10:28;;;;;;;8.17;6.77;;;16.90;90.20;;;;;;5094694;28;20470;-67
2021/09/25 06:12:55;;;;;;;12.73;7.00;;;16.90;90.20;;;;;;5094646;28;20455;-67
2021/09/25 06:15:23;;;;;;;7.77;6.20;;;16.90;90.20;;;;;;5094351;28;20432;-67
2021/09/25 06:17:50;;;;;;;7.03;6.20;;;17.00;90.20;;;;;;5094569;28;20439;-67
2021/09/25 06:20:19;;;;;;;10.20;7.30;;;16.90;90.00;;;;;;5094097;28;20479;-67
2021/09/25 06:25:38;;;;;;;9.40;8.50;;;16.90;89.70;;;;;;5093961;28;20451;-67
2021/09/25 06:28:14;;;;;;;9.10;7.77;;;17.00;90.00;;;;;;5094329;28;20424;-68
2021/09/25 06:30:47;;;;;;;6.93;6.17;;;17.10;90.00;;;;;;5094004;28;20967;-67
2021/09/25 06:33:32;;;;;;;8.23;7.37;;;17.10;89.60;;;;;;5094282;28;20444;-67
2021/09/25 06:36:24;;;;;;;7.97;7.20;;;17.10;89.70;;;;;;5094278;28;20511;-67
2021/09/25 06:38:58;;;;;;;7.23;6.27;;;17.20;89.30;;;;;;5094010;28;20502;-67
2021/09/25 06:41:34;;;;;;;11.27;6.23;;;17.20;89.40;;;;;;5094158;28;20416;-67
2021/09/25 06:44:07;;;;;;;7.00;6.03;;;17.20;89.30;;;;;;5093745;28;20443;-67
2021/09/25 06:46:55;;;;;;;6.77;6.03;;;17.30;89.40;;;;;;5093697;28;20481;-67
2021/09/25 06:49:23;;;;;;;10.93;7.00;;;17.40;89.60;;;;;;5093962;28;20505;-67
2021/09/25 06:51:50;;;;;;;6.03;5.40;;;17.50;89.50;;;;;;5093831;28;20475;-66
2021/09/25 06:54:17;;;;;;;6.47;5.67;;;17.50;88.80;;;;;;5093937;28;20443;-68
2021/09/25 06:56:44;;;;;;;5.50;4.97;;;17.60;88.30;;;;;;5093956;28;20431;-69
2021/09/25 06:59:11;;;;;;;7.53;5.17;;;17.70;88.00;;;;;;5093841;28;20459;-69
2021/09/25 07:01:37;;;;;;;5.20;4.70;;;17.80;87.60;;;;;;5093881;28;20444;-67
2021/09/25 07:04:06;;;;;;;8.10;5.27;;;17.80;87.00;;;;;;5093539;28;20436;-68
2021/09/25 07:06:34;;;;;;;4.87;4.47;;;18.00;86.40;;;;;;5093443;28;20932;-67
2021/09/25 07:09:01;;;;;;;7.07;4.60;;;17.90;85.30;;;;;;5093625;28;20468;-67
2021/09/25 07:11:27;;;;;;;5.17;3.93;;;18.00;85.40;;;;;;5093725;28;20476;-67
2021/09/25 07:13:54;;;;;;;8.60;4.93;;;18.00;84.90;;;;;;5093766;28;20443;-67
2021/09/25 07:16:21;;;;;;;6.57;4.33;;;18.00;84.00;;;;;;5093653;28;20825;-67
2021/09/25 07:18:48;;;;;;;5.03;4.40;;;18.00;84.40;;;;;;5093360;28;20486;-67
2021/09/25 07:21:16;;;;;;;5.40;4.87;;;18.10;84.10;;;;;;5093654;28;20429;-68
2021/09/25 07:24:07;;;;;;;5.10;4.60;;;18.10;83.80;;;;;;5093593;28;20443;-67
2021/09/25 07:26:52;;;;;;;5.53;5.03;;;18.20;83.90;;;;;;5093252;28;20428;-67
2021/09/25 07:29:19;;;;;;;8.97;5.77;;;18.20;83.70;;;;;;5093209;28;20558;-67
2021/09/25 07:31:46;;;;;;;6.40;4.50;;;18.30;83.70;;;;;;5093472;28;20509;-67
2021/09/25 07:34:13;;;;;;;6.17;5.37;;;18.30;83.50;;;;;;5093568;28;20440;-67
2021/09/25 07:36:41;;;;;;;6.00;5.40;;;18.30;83.60;;;;;;5093471;28;20477;-67
2021/09/25 07:39:08;;;;;;;5.37;4.87;;;18.20;83.50;;;;;;5093421;28;20516;-67
2021/09/25 07:41:36;;;;;;;8.10;4.70;;;18.30;83.70;;;;;;5093104;28;20952;-67
2021/09/25 07:44:03;;;;;;;5.20;4.70;;;18.40;84.00;;;;;;5093420;28;20453;-67
2021/09/25 07:46:30;;;;;;;8.13;5.20;;;18.50;83.70;;;;;;5093392;28;20451;-67
2021/09/25 07:48:58;;;;;;;7.83;5.70;;;18.60;83.30;;;;;;5093358;28;20466;-67
2021/09/25 07:51:25;;;;;;;10.23;4.83;;;18.60;82.40;;;;;;5092990;28;20471;-67
2021/09/25 07:53:54;;;;;;;6.87;5.23;;;18.60;82.60;;;;;;5093294;28;20451;-67
2021/09/25 07:56:20;;;;;;;5.87;4.87;;;18.60;82.70;;;;;;5093228;28;20444;-67
2021/09/25 07:58:47;;;;;;;4.50;4.10;;;18.70;82.40;;;;;;5096175;28;20468;-67
2021/09/25 08:01:14;;;;;;;6.93;5.03;;;18.70;82.10;;;;;;5097172;28;20440;-67
2021/09/25 08:03:41;;;;;;;5.60;4.23;;;18.80;82.10;;;;;;5097130;28;20443;-67
2021/09/25 08:06:08;;;;;;;6.70;5.60;;;18.80;81.70;;;;;;5096820;28;20989;-67
2021/09/25 08:08:35;;;;;;;5.77;5.10;;;18.90;81.60;;;;;;5096937;28;20467;-68
2021/09/25 08:11:03;;;;;;;6.80;5.27;;;19.00;81.50;;;;;;5096950;28;20475;-67
2021/09/25 08:13:30;;;;;;;8.00;5.40;;;19.10;81.10;;;;;;5096993;28;20439;-67
2021/09/25 08:15:57;;;;;;;6.43;4.70;;;19.10;80.80;;;;;;5096953;28;20541;-67
2021/09/25 08:18:23;;;;;;;5.47;4.73;;;19.20;80.60;;;;;;5096769;28;21026;-67
2021/09/25 08:20:51;;;;;;;6.90;5.50;;;19.30;80.80;;;;;;5097240;28;20428;-67
2021/09/25 08:23:19;;;;;;;8.30;5.13;;;19.30;80.50;;;;;;5096798;28;20457;-67
2021/09/25 08:25:46;;;;;;;6.67;5.03;;;19.40;80.50;;;;;;5096396;28;20440;-67
2021/09/25 08:28:15;;;;;;;6.30;5.70;;;19.50;80.00;;;;;;5096705;28;20431;-68
2021/09/25 08:30:42;;;;;;;5.37;4.83;;;19.70;80.40;;;;;;5096657;28;20447;-67
2021/09/25 08:33:12;;;;;;;5.33;4.57;;;19.80;79.20;;;;;;5096529;28;20471;-67
2021/09/25 08:35:39;;;;;;;7.67;5.13;;;20.00;78.60;;;;;;5096547;28;20443;-71
2021/09/25 08:38:06;;;;;;;7.83;6.40;;;20.20;77.80;;;;;;5096493;28;20432;-73
2021/09/25 08:40:34;;;;;;;17.90;6.63;;;20.30;76.20;;;;;;5096465;28;20454;-70
2021/09/25 08:43:02;;;;;;;7.20;6.50;;;20.40;76.60;;;;;;5096268;28;20516;-70
2021/09/25 08:45:30;;;;;;;9.83;7.47;;;20.40;76.60;;;;;;5096982;28;20812;-70
2021/09/25 08:47:58;;;;;;;6.83;5.47;;;20.50;76.70;;;;;;5096065;28;20436;-70
2021/09/25 08:50:26;;;;;;;6.87;6.00;;;20.50;76.30;;;;;;5095870;28;20451;-70
2021/09/25 08:52:54;;;;;;;8.23;5.90;;;20.60;77.00;;;;;;5095856;28;20480;-71
2021/09/25 08:55:22;;;;;;;7.93;5.87;;;20.60;76.20;;;;;;5096236;28;20444;-71
2021/09/25 08:57:48;;;;;;;7.77;6.77;;;20.70;76.20;;;;;;5095841;28;20477;-70
2021/09/25 09:00:38;;;;;;;7.00;6.30;;;20.70;76.70;;;;;;5095632;28;20985;-71
2021/09/25 09:03:30;;;;;;;7.07;6.27;;;20.80;75.60;;;;;;5096156;28;20435;-72
2021/09/25 09:06:16;;;;;;;8.83;5.50;;;20.90;75.80;;;;;;5096022;28;20428;-71
2021/09/25 09:08:45;;;;;;;10.83;6.77;;;21.00;74.80;;;;;;5095498;28;20460;-71
2021/09/25 09:11:14;;;;;;;6.10;5.50;;;21.10;75.30;;;;;;5095634;28;20483;-70
2021/09/25 09:13:43;;;;;;;7.50;5.93;;;21.20;74.30;;;;;;5095932;28;20483;-71
2021/09/25 09:16:12;;;;;;;6.00;5.40;;;21.30;74.00;;;;;;5095858;28;20439;-70
2021/09/25 09:18:41;;;;;;;7.73;5.87;;;21.30;74.10;;;;;;5095226;28;20977;-71
2021/09/25 09:21:14;;;;;;;10.27;5.90;;;21.40;73.50;;;;;;5095311;28;20969;-71
2021/09/25 09:23:44;;;;;;;7.17;6.00;;;21.50;72.80;;;;;;5095449;28;20405;-71
2021/09/25 09:26:13;;;;;;;12.63;6.00;;;21.50;72.80;;;;;;5095411;28;20454;-71
2021/09/25 09:28:41;;;;;;;5.50;4.93;;;21.60;72.60;;;;;;5095477;28;20467;-72
2021/09/25 09:31:09;;;;;;;9.03;5.57;;;21.70;72.60;;;;;;5095441;28;20450;-72
2021/09/25 09:33:40;;;;;;;6.60;4.57;;;21.90;72.00;;;;;;5095382;28;20439;-69
2021/09/25 09:36:35;;;;;;;8.27;5.20;;;22.10;72.00;;;;;;5095410;28;20443;-72
2021/09/25 09:39:07;;;;;;;6.43;4.30;;;22.40;72.10;;;;;;5095284;28;20463;-71
2021/09/25 09:41:37;;;;;;;6.60;5.57;;;22.60;70.30;;;;;;5095307;28;20416;-70
2021/09/25 09:44:06;;;;;;;8.10;5.83;;;22.70;68.40;;;;;;5095264;28;20425;-70
2021/09/25 09:46:39;;;;;;;6.63;5.40;;;22.80;67.50;;;;;;5095286;28;20442;-70
2021/09/25 09:49:09;;;;;;;5.30;4.80;;;22.90;66.60;;;;;;5095126;28;20452;-71
2021/09/25 09:51:47;;;;;;;7.80;6.37;;;23.10;66.40;;;;;;5095096;28;20464;-71
2021/09/25 09:54:18;;;;;;;8.17;5.47;;;23.30;64.20;;;;;;5095123;28;20435;-70
2021/09/25 09:56:46;;;;;;;7.40;6.27;;;23.40;63.50;;;;;;5094741;28;20443;-70
2021/09/25 09:59:14;;;;;;;7.00;5.60;;;23.50;63.70;;;;;;5094930;28;20473;-71
2021/09/25 10:01:42;;;;;;;6.60;5.63;;;23.60;62.30;;;;;;5094922;28;20443;-71
2021/09/25 10:04:11;;;;;;;9.60;4.90;;;23.70;64.20;;;;;;5094849;28;20534;-71
2021/09/25 10:06:38;;;;;;;6.80;5.60;;;23.80;62.30;;;;;;5094839;28;20443;-71
2021/09/25 10:09:10;;;;;;;8.90;5.17;;;23.90;59.70;;;;;;5094505;28;20980;-71
2021/09/25 10:11:39;;;;;;;7.17;5.80;;;24.10;59.20;;;;;;5094460;28;20428;-72
2021/09/25 10:14:07;;;;;;;7.37;6.07;;;24.20;61.00;;;;;;5094875;28;20478;-71
2021/09/25 10:16:34;;;;;;;10.13;6.30;;;24.40;59.50;;;;;;5094382;28;20906;-72
2021/09/25 10:19:03;;;;;;;9.17;5.07;;;24.80;57.20;;;;;;5094298;28;20499;-72
2021/09/25 10:21:34;;;;;;;4.67;3.97;;;25.40;55.80;;;;;;5093851;28;20436;-72
2021/09/25 10:24:06;;;;;;;5.07;4.57;;;25.80;53.60;;;;;;5095106;28;20490;-73
2021/09/25 10:26:33;;;;;;;8.83;6.13;;;26.20;53.80;;;;;;5094452;28;20822;-73
2021/09/25 10:29:03;;;;;;;5.40;4.63;;;26.40;52.30;;;;;;5094908;28;20467;-73
2021/09/25 10:31:30;;;;;;;8.80;4.73;;;26.40;53.10;;;;;;5094385;28;20475;-74
2021/09/25 10:34:18;;;;;;;6.37;4.40;;;26.50;52.80;;;;;;5094296;28;20442;-75
2021/09/25 10:36:50;;;;;;;10.40;4.57;;;26.60;51.20;;;;;;5094371;28;20439;-74
2021/09/25 10:39:26;;;;;;;6.53;4.50;;;26.60;51.40;;;;;;5093912;28;20466;-73
2021/09/25 10:42:06;;;;;;;5.30;3.80;;;26.60;52.90;;;;;;5094203;28;20425;-73
2021/09/25 10:44:40;;;;;;;8.03;4.63;;;26.50;53.40;;;;;;5093899;28;20463;-73
2021/09/25 10:47:08;;;;;;;6.60;4.20;;;26.60;51.20;;;;;;5094163;28;20432;-73
2021/09/25 10:50:00;;;;;;;7.17;4.60;;;26.50;51.90;;;;;;5094036;28;20459;-74
2021/09/25 10:52:43;;;;;;;4.73;4.13;;;26.40;50.50;;;;;;5086825;28;20482;-74
2021/09/25 10:55:25;;;;;;;6.10;3.90;;;26.20;50.80;;;;;;5094047;28;20522;-74
2021/09/25 10:58:21;;;;;;;8.00;4.10;;;26.20;51.10;;;;;;5093936;28;20937;-74
2021/09/25 11:01:00;;;;;;;5.73;3.60;;;26.30;51.10;;;;;;5093918;28;20443;-74
2021/09/25 11:03:56;;;;;;;3.50;3.20;;;26.40;52.10;;;;;;5094436;28;20424;-74
2021/09/25 11:06:27;;;;;;;4.33;3.20;;;26.90;52.10;;;;;;5093836;28;20448;-74
2021/09/25 11:08:56;;;;;;;10.13;3.80;;;28.00;48.30;;;;;;5094325;28;20525;-74
2021/09/25 11:11:34;;;;;;;4.97;3.83;;;29.10;44.70;;;;;;5094090;28;20447;-74
2021/09/25 11:14:32;;;;;;;7.70;3.17;;;30.20;43.10;;;;;;5093728;28;20474;-74
2021/09/25 11:17:05;;;;;;;4.33;3.13;;;31.50;37.80;;;;;;5071252;28;20427;-74
2021/09/25 11:19:51;;;;;;;4.67;3.30;;;32.10;37.80;;;;;;5089146;28;20475;-74
2021/09/25 11:22:30;;;;;;;6.13;3.00;;;32.80;36.50;;;;;;5093843;28;20415;-74
2021/09/25 11:24:59;;;;;;;4.20;2.70;;;33.10;35.20;;;;;;5093720;28;20433;-74
2021/09/25 11:27:28;;;;;;;2.80;2.60;;;33.30;32.70;;;;;;5093725;28;20435;-74
2021/09/25 11:30:01;;;;;;;4.53;2.37;;;33.70;31.60;;;;;;5093501;28;20580;-75
2021/09/25 11:32:30;;;;;;;6.83;2.70;;;34.00;30.50;;;;;;5096108;28;20459;-74
2021/09/25 11:34:58;;;;;;;4.30;2.77;;;34.30;29.70;;;;;;5097741;28;20447;-75
2021/09/25 11:37:25;;;;;;;2.30;2.10;;;34.70;30.20;;;;;;5097820;28;20451;-75
2021/09/25 11:39:53;;;;;;;6.10;2.43;;;34.90;29.20;;;;;;5097604;28;20463;-75
2021/09/25 11:42:22;;;;;;;5.70;2.33;;;35.20;29.10;;;;;;5097591;28;20445;-75
2021/09/25 11:44:54;;;;;;;4.83;2.20;;;35.60;27.70;;;;;;5097536;28;20455;-75
2021/09/25 11:47:26;;;;;;;7.37;2.37;;;35.90;26.90;;;;;;5097563;28;20423;-75
2021/09/25 11:49:53;;;;;;;9.60;2.67;;;36.20;27.10;;;;;;5097106;28;20467;-75
2021/09/25 11:52:19;;;;;;;5.03;1.83;;;36.70;26.90;;;;;;5097324;28;20470;-75
2021/09/25 11:54:49;;;;;;;3.30;2.03;;;37.00;26.60;;;;;;5097470;28;20189;-75
2021/09/25 11:57:18;;;;;;;2.83;2.23;;;36.90;25.30;;;;;;5097320;28;20204;-75
2021/09/25 11:59:46;;;;;;;4.83;2.20;;;36.70;25.40;;;;;;5097170;28;20228;-75
2021/09/25 12:02:38;;;;;;;4.73;2.13;;;36.90;25.90;;;;;;5097138;28;20201;-75
2021/09/25 12:05:06;;;;;;;4.50;1.80;;;37.10;25.80;;;;;;5097225;28;20196;-75
2021/09/25 12:07:44;;;;;;;4.13;1.92;;;37.50;26.20;;;;;;5097156;28;20208;-75
2021/09/25 12:10:22;;;;;;;3.03;2.37;;;37.90;25.50;;;;;;5097120;28;20368;-74
2021/09/25 12:12:58;;;;;;;2.23;2.03;;;37.70;25.20;;;;;;5096596;28;20228;-74
2021/09/25 12:15:29;;;;;;;2.20;2.10;;;37.30;26.20;;;;;;5097040;28;20185;-74
2021/09/25 12:18:21;;;;;;;2.63;2.03;;;37.00;25.50;;;;;;5096860;28;20201;-75
2021/09/25 12:20:51;;;;;;;2.50;1.90;;;36.90;26.00;;;;;;5091301;28;20205;-75
2021/09/25 12:23:24;;;;;;;3.27;2.23;;;37.30;26.10;;;;;;5096857;28;20188;-75
2021/09/25 12:25:51;;;;;;;2.23;2.00;;;37.50;24.50;;;;;;5096808;28;20197;-75
2021/09/25 12:28:29;;;;;;;2.20;2.00;;;37.70;25.10;;;;;;5096722;28;20283;-75
2021/09/25 12:30:59;;;;;;;2.40;1.77;;;38.00;23.90;;;;;;5096531;28;20196;-75
2021/09/25 12:33:26;;;;;;;4.85;2.55;;;38.20;24.70;;;;;;5096754;28;20209;-75
2021/09/25 12:36:01;;;;;;;2.65;2.40;;;38.40;24.30;;;;;;5096542;28;20566;-75
2021/09/25 12:38:30;;;;;;;2.05;1.70;;;38.90;24.10;;;;;;5096619;28;20282;-75
2021/09/25 12:41:05;;;;;;;3.35;2.00;;;39.40;23.80;;;;;;5096620;28;20215;-75
2021/09/25 12:43:41;;;;;;;1.70;1.60;;;39.80;23.00;;;;;;5095696;28;20188;-76
2021/09/25 12:46:13;;;;;;;3.25;1.67;;;39.70;23.20;;;;;;5096673;28;20185;-76
2021/09/25 12:49:21;;;;;;;2.40;2.20;;;39.60;23.70;;;;;;5096297;28;20235;-75
2021/09/25 12:51:50;;;;;;;3.83;2.17;;;40.10;23.40;;;;;;5073666;28;20206;-75
2021/09/25 12:54:51;;;;;;;2.50;2.10;;;40.60;22.80;;;;;;5073741;28;20230;-73
2021/09/25 12:57:36;;;;;;;3.35;1.77;;;40.80;21.80;;;;;;5073649;28;20212;-73
2021/09/25 13:00:15;;;;;;;3.65;2.03;;;40.90;22.20;;;;;;5067400;28;20253;-72
2021/09/25 13:02:43;;;;;;;4.00;2.72;;;41.30;22.00;;;;;;5080317;28;20287;-72